< Typhoon 200204 2002 Season Typhoon 200206 >
Typhoon 200205 (RAMMASUN)
General InformationTrack Information on Google MapsDetailed Wind InformationList of All Images || Disaster Info.ResourceGoogle EarthGE AnimationAtom FeedGeoJSON
Detalied Best Track (Time Zone = UTC)
Year Month Day Hour Lat. Long. Pressure (hPa) Wind (kt) Class Image Chart
2002 6 28 00 9.8 138.0 1004 0 2 Image Chart
2002 6 28 06 10.1 137.7 1000 0 2 Image Chart
2002 6 28 12 10.6 137.0 1000 0 2 Image Chart
2002 6 28 18 10.8 136.6 1000 0 2 Image Chart
2002 6 29 00 11.4 136.3 998 35 3 Image Chart
2002 6 29 06 11.7 135.6 996 40 3 Image Chart
2002 6 29 12 12.0 135.0 992 45 3 Image Chart
2002 6 29 18 12.4 134.5 985 50 4 Image Chart
2002 6 30 00 12.8 133.7 985 50 4 Image Chart
2002 6 30 06 13.3 133.6 985 50 4 Image Chart
2002 6 30 12 13.4 133.6 980 50 4 Image Chart
2002 6 30 18 13.9 133.6 980 55 4 Image Chart
2002 7 1 00 15.1 133.5 980 55 4 Image Chart
2002 7 1 06 16.1 132.8 975 60 4 Image Chart
2002 7 1 12 17.3 132.3 970 65 5 Image Chart
2002 7 1 18 18.6 131.0 970 65 5 Image Chart
2002 7 2 00 19.4 129.8 970 65 5 Image Chart
2002 7 2 06 20.3 128.8 965 70 5 Image Chart
2002 7 2 12 21.2 128.0 955 80 5 Image Chart
2002 7 2 15 21.8 127.7 950 85 5 Image Chart
2002 7 2 18 22.3 127.4 950 85 5 Image Chart
2002 7 2 21 23.0 126.7 950 85 5 Image Chart
2002 7 3 00 23.2 126.3 950 85 5 Image Chart
2002 7 3 03 23.5 125.9 950 85 5 Image Chart
2002 7 3 06 23.8 125.6 945 85 5 Image Chart
2002 7 3 09 24.2 125.6 945 85 5 Image Chart
2002 7 3 12 24.7 125.3 945 85 5 Image Chart
2002 7 3 15 25.1 125.1 945 85 5 Image Chart
2002 7 3 18 25.6 124.9 945 85 5 Image Chart
2002 7 3 21 26.2 124.8 945 85 5 Image Chart
2002 7 4 00 26.7 124.6 945 85 5 Image Chart
2002 7 4 03 27.2 124.1 945 85 5 Image Chart
2002 7 4 06 27.8 124.2 950 80 5 Image Chart
2002 7 4 09 28.6 124.2 950 80 5 Image Chart
2002 7 4 12 29.2 124.2 955 75 5 Image Chart
2002 7 4 18 30.7 124.0 960 70 5 Image Chart
2002 7 5 00 32.2 123.7 965 65 5 Image Chart
2002 7 5 06 32.9 123.7 975 60 4 Image Chart
2002 7 5 12 33.7 124.5 980 55 4 Image Chart
2002 7 5 18 34.9 125.5 980 45 3 Image Chart
2002 7 6 00 36.5 127.0 985 40 3 Image Chart
2002 7 6 06 37.5 129.0 986 40 3 Image Chart
2002 7 6 12 38.5 129.8 988 0 6 Image Chart
2002 7 6 18 39.3 129.8 990 0 6 Image Chart
2002 7 7 00 39.6 129.8 992 0 6 Image Chart
2002 7 7 06 39.8 130.2 996 0 6 Image Chart
2002 7 7 12 40.3 131.7 1000 0 6 Image Chart
2002 7 7 18 40.4 132.7 1002 0 6 Image Chart
Japan Meteorological Agency Best Track Data | Correction Date : 2006-01-18
< Typhoon 200204 2002 Season Typhoon 200206 >

Help